sensor_id;sensor_type;location;lat;lon;timestamp;P1;durP1;ratioP1;P2;durP2;ratioP2
48363;SDS011;34170;54.364;18.582;2024-03-29T00:00:32;5.68;;;3.58;;
48363;SDS011;34170;54.364;18.582;2024-03-29T00:03:19;5.72;;;3.10;;
48363;SDS011;34170;54.364;18.582;2024-03-29T00:05:45;7.05;;;3.40;;
48363;SDS011;34170;54.364;18.582;2024-03-29T00:08:12;4.85;;;2.70;;
48363;SDS011;34170;54.364;18.582;2024-03-29T00:10:38;4.75;;;2.92;;
48363;SDS011;34170;54.364;18.582;2024-03-29T00:13:05;4.68;;;2.60;;
48363;SDS011;34170;54.364;18.582;2024-03-29T00:15:32;5.72;;;3.03;;
48363;SDS011;34170;54.364;18.582;2024-03-29T00:17:59;5.50;;;2.70;;
48363;SDS011;34170;54.364;18.582;2024-03-29T00:20:25;7.22;;;3.00;;
48363;SDS011;34170;54.364;18.582;2024-03-29T00:22:52;5.80;;;3.10;;
48363;SDS011;34170;54.364;18.582;2024-03-29T00:25:18;5.72;;;2.80;;
48363;SDS011;34170;54.364;18.582;2024-03-29T00:27:46;7.72;;;3.30;;
48363;SDS011;34170;54.364;18.582;2024-03-29T00:30:14;6.00;;;2.42;;
48363;SDS011;34170;54.364;18.582;2024-03-29T00:32:41;5.28;;;3.17;;
48363;SDS011;34170;54.364;18.582;2024-03-29T00:35:07;5.40;;;3.10;;
48363;SDS011;34170;54.364;18.582;2024-03-29T00:37:34;6.85;;;3.00;;
48363;SDS011;34170;54.364;18.582;2024-03-29T00:40:01;4.70;;;2.80;;
48363;SDS011;34170;54.364;18.582;2024-03-29T00:45:31;9.18;;;3.13;;
48363;SDS011;34170;54.364;18.582;2024-03-29T00:47:58;5.65;;;2.97;;
48363;SDS011;34170;54.364;18.582;2024-03-29T00:50:25;5.57;;;2.50;;
48363;SDS011;34170;54.364;18.582;2024-03-29T00:52:51;5.38;;;2.50;;
48363;SDS011;34170;54.364;18.582;2024-03-29T00:55:37;5.40;;;2.28;;
48363;SDS011;34170;54.364;18.582;2024-03-29T00:58:03;4.13;;;2.30;;
48363;SDS011;34170;54.364;18.582;2024-03-29T01:00:30;3.08;;;2.05;;
48363;SDS011;34170;54.364;18.582;2024-03-29T01:03:15;3.55;;;2.05;;
48363;SDS011;34170;54.364;18.582;2024-03-29T01:05:41;5.95;;;2.50;;
48363;SDS011;34170;54.364;18.582;2024-03-29T01:08:08;5.15;;;2.25;;
48363;SDS011;34170;54.364;18.582;2024-03-29T01:10:53;3.83;;;1.85;;
48363;SDS011;34170;54.364;18.582;2024-03-29T01:13:20;4.97;;;2.03;;
48363;SDS011;34170;54.364;18.582;2024-03-29T01:15:46;6.25;;;2.20;;
48363;SDS011;34170;54.364;18.582;2024-03-29T01:18:13;4.07;;;2.13;;
48363;SDS011;34170;54.364;18.582;2024-03-29T01:20:57;3.45;;;1.50;;
48363;SDS011;34170;54.364;18.582;2024-03-29T01:23:43;3.85;;;1.70;;
48363;SDS011;34170;54.364;18.582;2024-03-29T01:26:10;4.32;;;2.03;;
48363;SDS011;34170;54.364;18.582;2024-03-29T01:28:40;3.25;;;1.60;;
48363;SDS011;34170;54.364;18.582;2024-03-29T01:31:07;3.15;;;1.70;;
48363;SDS011;34170;54.364;18.582;2024-03-29T01:33:33;3.17;;;1.27;;
48363;SDS011;34170;54.364;18.582;2024-03-29T01:36:03;3.20;;;1.38;;
48363;SDS011;34170;54.364;18.582;2024-03-29T01:41:36;1.95;;;1.20;;
48363;SDS011;34170;54.364;18.582;2024-03-29T01:44:03;1.67;;;0.80;;
48363;SDS011;34170;54.364;18.582;2024-03-29T01:46:29;1.60;;;0.90;;
48363;SDS011;34170;54.364;18.582;2024-03-29T01:48:58;2.25;;;0.88;;
48363;SDS011;34170;54.364;18.582;2024-03-29T01:51:24;2.97;;;0.80;;
48363;SDS011;34170;54.364;18.582;2024-03-29T01:53:52;1.02;;;0.52;;
48363;SDS011;34170;54.364;18.582;2024-03-29T01:56:21;1.52;;;0.65;;
48363;SDS011;34170;54.364;18.582;2024-03-29T01:58:51;3.47;;;0.60;;
48363;SDS011;34170;54.364;18.582;2024-03-29T02:01:21;1.30;;;0.50;;
48363;SDS011;34170;54.364;18.582;2024-03-29T02:04:06;0.60;;;0.40;;
48363;SDS011;34170;54.364;18.582;2024-03-29T02:06:33;1.45;;;0.60;;
48363;SDS011;34170;54.364;18.582;2024-03-29T02:09:00;2.22;;;0.50;;
48363;SDS011;34170;54.364;18.582;2024-03-29T02:11:27;1.65;;;0.45;;
48363;SDS011;34170;54.364;18.582;2024-03-29T02:13:54;1.27;;;0.50;;
48363;SDS011;34170;54.364;18.582;2024-03-29T02:16:20;2.90;;;0.60;;
48363;SDS011;34170;54.364;18.582;2024-03-29T02:18:47;2.30;;;0.47;;
48363;SDS011;34170;54.364;18.582;2024-03-29T02:21:13;1.08;;;0.43;;
48363;SDS011;34170;54.364;18.582;2024-03-29T02:24:08;1.05;;;0.57;;
48363;SDS011;34170;54.364;18.582;2024-03-29T02:26:35;1.23;;;0.50;;
48363;SDS011;34170;54.364;18.582;2024-03-29T02:29:08;1.30;;;0.50;;
48363;SDS011;34170;54.364;18.582;2024-03-29T02:31:38;1.08;;;0.40;;
48363;SDS011;34170;54.364;18.582;2024-03-29T02:36:50;1.48;;;0.40;;
48363;SDS011;34170;54.364;18.582;2024-03-29T02:39:17;0.63;;;0.30;;
48363;SDS011;34170;54.364;18.582;2024-03-29T02:41:43;1.52;;;0.50;;
48363;SDS011;34170;54.364;18.582;2024-03-29T02:44:10;0.93;;;0.50;;
48363;SDS011;34170;54.364;18.582;2024-03-29T02:46:36;0.85;;;0.30;;
48363;SDS011;34170;54.364;18.582;2024-03-29T02:49:03;1.73;;;0.50;;
48363;SDS011;34170;54.364;18.582;2024-03-29T02:51:48;1.23;;;0.50;;
48363;SDS011;34170;54.364;18.582;2024-03-29T02:54:17;2.97;;;0.57;;
48363;SDS011;34170;54.364;18.582;2024-03-29T02:56:43;1.73;;;0.52;;
48363;SDS011;34170;54.364;18.582;2024-03-29T02:59:10;1.15;;;0.50;;
48363;SDS011;34170;54.364;18.582;2024-03-29T03:01:37;2.28;;;0.60;;
48363;SDS011;34170;54.364;18.582;2024-03-29T03:04:04;2.08;;;0.50;;
48363;SDS011;34170;54.364;18.582;2024-03-29T03:06:30;2.15;;;0.57;;
48363;SDS011;34170;54.364;18.582;2024-03-29T03:08:57;1.65;;;0.40;;
48363;SDS011;34170;54.364;18.582;2024-03-29T03:11:41;0.75;;;0.40;;
48363;SDS011;34170;54.364;18.582;2024-03-29T03:14:08;2.85;;;0.75;;
48363;SDS011;34170;54.364;18.582;2024-03-29T03:16:34;1.02;;;0.40;;
48363;SDS011;34170;54.364;18.582;2024-03-29T03:19:01;1.40;;;0.50;;
48363;SDS011;34170;54.364;18.582;2024-03-29T03:21:27;1.85;;;0.60;;
48363;SDS011;34170;54.364;18.582;2024-03-29T03:26:41;1.65;;;0.60;;
48363;SDS011;34170;54.364;18.582;2024-03-29T03:29:07;2.92;;;0.70;;
48363;SDS011;34170;54.364;18.582;2024-03-29T03:31:36;1.00;;;0.40;;
48363;SDS011;34170;54.364;18.582;2024-03-29T03:34:03;1.10;;;0.57;;
48363;SDS011;34170;54.364;18.582;2024-03-29T03:36:29;1.40;;;0.47;;
48363;SDS011;34170;54.364;18.582;2024-03-29T03:38:56;1.00;;;0.30;;
48363;SDS011;34170;54.364;18.582;2024-03-29T03:41:22;1.48;;;0.52;;
48363;SDS011;34170;54.364;18.582;2024-03-29T03:43:49;2.35;;;0.43;;
48363;SDS011;34170;54.364;18.582;2024-03-29T03:46:15;0.70;;;0.30;;
48363;SDS011;34170;54.364;18.582;2024-03-29T03:48:42;2.05;;;0.50;;
48363;SDS011;34170;54.364;18.582;2024-03-29T03:51:08;4.05;;;0.40;;
48363;SDS011;34170;54.364;18.582;2024-03-29T03:56:20;0.82;;;0.40;;
48363;SDS011;34170;54.364;18.582;2024-03-29T03:58:46;1.13;;;0.45;;
48363;SDS011;34170;54.364;18.582;2024-03-29T04:01:13;3.22;;;0.63;;
48363;SDS011;34170;54.364;18.582;2024-03-29T04:03:39;2.03;;;0.30;;
48363;SDS011;34170;54.364;18.582;2024-03-29T04:08:52;1.02;;;0.40;;
48363;SDS011;34170;54.364;18.582;2024-03-29T04:11:18;2.30;;;0.40;;
48363;SDS011;34170;54.364;18.582;2024-03-29T04:13:45;0.80;;;0.30;;
48363;SDS011;34170;54.364;18.582;2024-03-29T04:16:11;2.08;;;0.82;;
48363;SDS011;34170;54.364;18.582;2024-03-29T04:18:38;1.33;;;0.30;;
48363;SDS011;34170;54.364;18.582;2024-03-29T04:21:05;1.08;;;0.50;;
48363;SDS011;34170;54.364;18.582;2024-03-29T04:23:32;2.60;;;0.57;;
48363;SDS011;34170;54.364;18.582;2024-03-29T04:25:59;2.78;;;0.60;;
48363;SDS011;34170;54.364;18.582;2024-03-29T04:28:26;2.15;;;0.57;;
48363;SDS011;34170;54.364;18.582;2024-03-29T04:30:53;2.63;;;0.50;;
48363;SDS011;34170;54.364;18.582;2024-03-29T04:33:24;2.33;;;0.60;;
48363;SDS011;34170;54.364;18.582;2024-03-29T04:36:01;1.73;;;0.50;;
48363;SDS011;34170;54.364;18.582;2024-03-29T04:39:05;1.33;;;0.57;;
48363;SDS011;34170;54.364;18.582;2024-03-29T04:41:31;2.20;;;0.90;;
48363;SDS011;34170;54.364;18.582;2024-03-29T04:44:01;2.33;;;0.43;;
48363;SDS011;34170;54.364;18.582;2024-03-29T04:46:29;2.22;;;0.50;;
48363;SDS011;34170;54.364;18.582;2024-03-29T04:51:48;3.53;;;0.50;;
48363;SDS011;34170;54.364;18.582;2024-03-29T04:54:16;1.15;;;0.40;;
48363;SDS011;34170;54.364;18.582;2024-03-29T04:56:43;1.73;;;0.60;;
48363;SDS011;34170;54.364;18.582;2024-03-29T04:59:10;1.95;;;0.50;;
48363;SDS011;34170;54.364;18.582;2024-03-29T05:01:55;1.77;;;0.60;;
48363;SDS011;34170;54.364;18.582;2024-03-29T05:04:23;1.30;;;0.50;;
48363;SDS011;34170;54.364;18.582;2024-03-29T05:07:11;2.78;;;0.45;;
48363;SDS011;34170;54.364;18.582;2024-03-29T05:09:38;1.20;;;0.50;;
48363;SDS011;34170;54.364;18.582;2024-03-29T05:12:23;0.98;;;0.30;;
48363;SDS011;34170;54.364;18.582;2024-03-29T05:14:50;3.72;;;0.57;;
48363;SDS011;34170;54.364;18.582;2024-03-29T05:17:35;2.83;;;0.70;;
48363;SDS011;34170;54.364;18.582;2024-03-29T05:20:03;2.35;;;0.70;;
48363;SDS011;34170;54.364;18.582;2024-03-29T05:22:31;1.75;;;0.47;;
48363;SDS011;34170;54.364;18.582;2024-03-29T05:24:57;2.35;;;0.52;;
48363;SDS011;34170;54.364;18.582;2024-03-29T05:27:24;1.58;;;0.75;;
48363;SDS011;34170;54.364;18.582;2024-03-29T05:32:36;3.58;;;0.60;;
48363;SDS011;34170;54.364;18.582;2024-03-29T05:35:02;3.72;;;0.80;;
48363;SDS011;34170;54.364;18.582;2024-03-29T05:37:30;1.38;;;0.43;;
48363;SDS011;34170;54.364;18.582;2024-03-29T05:39:56;3.92;;;0.57;;
48363;SDS011;34170;54.364;18.582;2024-03-29T05:42:29;2.03;;;0.60;;
48363;SDS011;34170;54.364;18.582;2024-03-29T05:47:24;1.95;;;0.60;;
48363;SDS011;34170;54.364;18.582;2024-03-29T05:49:51;1.42;;;0.60;;
48363;SDS011;34170;54.364;18.582;2024-03-29T05:52:20;2.78;;;0.57;;
48363;SDS011;34170;54.364;18.582;2024-03-29T05:54:49;1.45;;;0.40;;
48363;SDS011;34170;54.364;18.582;2024-03-29T05:57:16;2.60;;;0.68;;
48363;SDS011;34170;54.364;18.582;2024-03-29T05:59:43;2.95;;;0.50;;
48363;SDS011;34170;54.364;18.582;2024-03-29T06:02:09;1.95;;;0.30;;
48363;SDS011;34170;54.364;18.582;2024-03-29T06:04:35;4.82;;;0.52;;
48363;SDS011;34170;54.364;18.582;2024-03-29T06:07:04;2.13;;;0.70;;
48363;SDS011;34170;54.364;18.582;2024-03-29T06:09:31;1.90;;;0.70;;
48363;SDS011;34170;54.364;18.582;2024-03-29T06:11:59;2.28;;;0.95;;
48363;SDS011;34170;54.364;18.582;2024-03-29T06:14:26;2.78;;;0.90;;
48363;SDS011;34170;54.364;18.582;2024-03-29T06:17:11;1.65;;;0.30;;
48363;SDS011;34170;54.364;18.582;2024-03-29T06:22:20;1.52;;;0.50;;
48363;SDS011;34170;54.364;18.582;2024-03-29T06:24:46;1.70;;;0.50;;
48363;SDS011;34170;54.364;18.582;2024-03-29T06:27:14;1.02;;;0.40;;
48363;SDS011;34170;54.364;18.582;2024-03-29T06:29:43;1.60;;;0.60;;
48363;SDS011;34170;54.364;18.582;2024-03-29T06:32:10;1.17;;;0.50;;
48363;SDS011;34170;54.364;18.582;2024-03-29T06:34:37;1.38;;;0.60;;
48363;SDS011;34170;54.364;18.582;2024-03-29T06:37:03;1.25;;;0.50;;
48363;SDS011;34170;54.364;18.582;2024-03-29T06:39:31;2.08;;;0.40;;
48363;SDS011;34170;54.364;18.582;2024-03-29T06:41:57;1.48;;;0.50;;
48363;SDS011;34170;54.364;18.582;2024-03-29T06:44:24;2.47;;;0.40;;
48363;SDS011;34170;54.364;18.582;2024-03-29T06:46:50;2.15;;;0.40;;
48363;SDS011;34170;54.364;18.582;2024-03-29T06:49:17;3.28;;;0.50;;
48363;SDS011;34170;54.364;18.582;2024-03-29T06:51:45;1.52;;;0.50;;
48363;SDS011;34170;54.364;18.582;2024-03-29T06:56:58;2.75;;;0.63;;
48363;SDS011;34170;54.364;18.582;2024-03-29T06:59:26;1.75;;;0.60;;
48363;SDS011;34170;54.364;18.582;2024-03-29T07:01:52;2.65;;;0.80;;
48363;SDS011;34170;54.364;18.582;2024-03-29T07:04:20;1.23;;;0.55;;
48363;SDS011;34170;54.364;18.582;2024-03-29T07:09:36;3.13;;;0.70;;
48363;SDS011;34170;54.364;18.582;2024-03-29T07:12:03;1.95;;;0.70;;
48363;SDS011;34170;54.364;18.582;2024-03-29T07:14:29;2.05;;;0.77;;
48363;SDS011;34170;54.364;18.582;2024-03-29T07:16:57;2.67;;;0.80;;
48363;SDS011;34170;54.364;18.582;2024-03-29T07:19:24;1.75;;;0.60;;
48363;SDS011;34170;54.364;18.582;2024-03-29T07:21:50;1.50;;;0.85;;
48363;SDS011;34170;54.364;18.582;2024-03-29T07:24:20;3.65;;;0.70;;
48363;SDS011;34170;54.364;18.582;2024-03-29T07:26:46;3.58;;;1.10;;
48363;SDS011;34170;54.364;18.582;2024-03-29T07:29:13;2.55;;;0.98;;
48363;SDS011;34170;54.364;18.582;2024-03-29T07:31:39;2.97;;;0.80;;
48363;SDS011;34170;54.364;18.582;2024-03-29T07:34:06;2.33;;;0.70;;
48363;SDS011;34170;54.364;18.582;2024-03-29T07:36:32;1.58;;;0.82;;
48363;SDS011;34170;54.364;18.582;2024-03-29T07:39:02;1.48;;;0.70;;
48363;SDS011;34170;54.364;18.582;2024-03-29T07:41:30;2.38;;;0.75;;
48363;SDS011;34170;54.364;18.582;2024-03-29T07:43:57;1.77;;;0.68;;
48363;SDS011;34170;54.364;18.582;2024-03-29T07:46:31;2.30;;;0.52;;
48363;SDS011;34170;54.364;18.582;2024-03-29T07:49:00;5.20;;;0.90;;
48363;SDS011;34170;54.364;18.582;2024-03-29T07:51:27;3.63;;;0.65;;
48363;SDS011;34170;54.364;18.582;2024-03-29T07:53:53;2.00;;;0.80;;
48363;SDS011;34170;54.364;18.582;2024-03-29T07:56:20;2.42;;;0.52;;
48363;SDS011;34170;54.364;18.582;2024-03-29T07:59:07;1.58;;;0.52;;
48363;SDS011;34170;54.364;18.582;2024-03-29T08:01:33;1.98;;;0.70;;
48363;SDS011;34170;54.364;18.582;2024-03-29T08:04:00;3.38;;;0.70;;
48363;SDS011;34170;54.364;18.582;2024-03-29T08:06:26;2.35;;;0.70;;
48363;SDS011;34170;54.364;18.582;2024-03-29T08:08:53;1.42;;;0.55;;
48363;SDS011;34170;54.364;18.582;2024-03-29T08:11:19;2.08;;;0.47;;
48363;SDS011;34170;54.364;18.582;2024-03-29T08:13:46;1.98;;;0.68;;
48363;SDS011;34170;54.364;18.582;2024-03-29T08:16:13;8.20;;;0.90;;
48363;SDS011;34170;54.364;18.582;2024-03-29T08:18:45;3.58;;;0.47;;
48363;SDS011;34170;54.364;18.582;2024-03-29T08:21:13;1.88;;;0.52;;
48363;SDS011;34170;54.364;18.582;2024-03-29T08:23:40;1.25;;;0.45;;
48363;SDS011;34170;54.364;18.582;2024-03-29T08:26:10;4.07;;;0.80;;
48363;SDS011;34170;54.364;18.582;2024-03-29T08:28:37;2.28;;;0.80;;
48363;SDS011;34170;54.364;18.582;2024-03-29T08:31:07;3.10;;;0.80;;
48363;SDS011;34170;54.364;18.582;2024-03-29T08:33:35;2.38;;;0.73;;
48363;SDS011;34170;54.364;18.582;2024-03-29T08:36:06;3.38;;;0.55;;
48363;SDS011;34170;54.364;18.582;2024-03-29T08:38:34;1.58;;;1.05;;
48363;SDS011;34170;54.364;18.582;2024-03-29T08:41:19;2.28;;;0.60;;
48363;SDS011;34170;54.364;18.582;2024-03-29T08:43:46;2.50;;;0.30;;
48363;SDS011;34170;54.364;18.582;2024-03-29T08:46:12;2.72;;;0.50;;
48363;SDS011;34170;54.364;18.582;2024-03-29T08:48:39;3.22;;;0.52;;
48363;SDS011;34170;54.364;18.582;2024-03-29T08:51:09;1.60;;;0.50;;
48363;SDS011;34170;54.364;18.582;2024-03-29T08:53:36;4.35;;;0.60;;
48363;SDS011;34170;54.364;18.582;2024-03-29T08:56:03;3.53;;;0.60;;
48363;SDS011;34170;54.364;18.582;2024-03-29T08:58:30;3.28;;;0.45;;
48363;SDS011;34170;54.364;18.582;2024-03-29T09:01:15;2.95;;;0.50;;
48363;SDS011;34170;54.364;18.582;2024-03-29T09:03:42;2.42;;;0.40;;
48363;SDS011;34170;54.364;18.582;2024-03-29T09:06:09;3.45;;;1.00;;
48363;SDS011;34170;54.364;18.582;2024-03-29T09:08:35;2.10;;;0.43;;
48363;SDS011;34170;54.364;18.582;2024-03-29T09:11:02;3.50;;;0.70;;
48363;SDS011;34170;54.364;18.582;2024-03-29T09:13:30;2.45;;;0.60;;
48363;SDS011;34170;54.364;18.582;2024-03-29T09:15:58;2.28;;;0.60;;
48363;SDS011;34170;54.364;18.582;2024-03-29T09:18:24;3.75;;;0.60;;
48363;SDS011;34170;54.364;18.582;2024-03-29T09:20:56;3.55;;;0.60;;
48363;SDS011;34170;54.364;18.582;2024-03-29T09:23:25;1.73;;;0.43;;
48363;SDS011;34170;54.364;18.582;2024-03-29T09:25:55;4.25;;;0.52;;
48363;SDS011;34170;54.364;18.582;2024-03-29T09:28:22;2.13;;;0.50;;
48363;SDS011;34170;54.364;18.582;2024-03-29T09:30:49;3.17;;;0.80;;
48363;SDS011;34170;54.364;18.582;2024-03-29T09:33:17;4.25;;;0.70;;
48363;SDS011;34170;54.364;18.582;2024-03-29T09:35:43;1.60;;;0.43;;
48363;SDS011;34170;54.364;18.582;2024-03-29T09:38:29;2.72;;;0.65;;
48363;SDS011;34170;54.364;18.582;2024-03-29T09:43:53;1.40;;;0.50;;
48363;SDS011;34170;54.364;18.582;2024-03-29T09:46:21;1.55;;;0.43;;
48363;SDS011;34170;54.364;18.582;2024-03-29T09:48:48;1.35;;;0.40;;
48363;SDS011;34170;54.364;18.582;2024-03-29T09:51:16;1.80;;;0.30;;
48363;SDS011;34170;54.364;18.582;2024-03-29T09:53:43;4.45;;;0.57;;
48363;SDS011;34170;54.364;18.582;2024-03-29T09:56:10;2.22;;;0.30;;
48363;SDS011;34170;54.364;18.582;2024-03-29T09:58:37;2.15;;;0.50;;
48363;SDS011;34170;54.364;18.582;2024-03-29T10:01:05;6.43;;;0.95;;
48363;SDS011;34170;54.364;18.582;2024-03-29T10:03:34;2.70;;;0.30;;
48363;SDS011;34170;54.364;18.582;2024-03-29T10:06:05;1.42;;;0.38;;
48363;SDS011;34170;54.364;18.582;2024-03-29T10:08:34;1.85;;;0.38;;
48363;SDS011;34170;54.364;18.582;2024-03-29T10:11:01;2.97;;;0.70;;
48363;SDS011;34170;54.364;18.582;2024-03-29T10:13:29;3.45;;;0.70;;
48363;SDS011;34170;54.364;18.582;2024-03-29T10:15:56;4.43;;;0.93;;
48363;SDS011;34170;54.364;18.582;2024-03-29T10:18:23;2.40;;;0.52;;
48363;SDS011;34170;54.364;18.582;2024-03-29T10:21:05;2.33;;;0.40;;
48363;SDS011;34170;54.364;18.582;2024-03-29T10:23:33;1.05;;;0.40;;
48363;SDS011;34170;54.364;18.582;2024-03-29T10:26:03;1.07;;;0.47;;
48363;SDS011;34170;54.364;18.582;2024-03-29T10:28:31;1.25;;;0.35;;
48363;SDS011;34170;54.364;18.582;2024-03-29T10:31:04;1.42;;;0.32;;
48363;SDS011;34170;54.364;18.582;2024-03-29T10:33:32;3.40;;;0.30;;
48363;SDS011;34170;54.364;18.582;2024-03-29T10:36:00;1.30;;;0.25;;
48363;SDS011;34170;54.364;18.582;2024-03-29T10:38:30;1.05;;;0.28;;
48363;SDS011;34170;54.364;18.582;2024-03-29T10:40:57;3.20;;;0.40;;
48363;SDS011;34170;54.364;18.582;2024-03-29T10:43:24;5.20;;;0.40;;
48363;SDS011;34170;54.364;18.582;2024-03-29T10:45:51;1.75;;;0.30;;
48363;SDS011;34170;54.364;18.582;2024-03-29T10:48:21;1.63;;;0.50;;
48363;SDS011;34170;54.364;18.582;2024-03-29T10:50:48;1.17;;;0.28;;
48363;SDS011;34170;54.364;18.582;2024-03-29T10:53:17;3.10;;;0.30;;
48363;SDS011;34170;54.364;18.582;2024-03-29T10:55:44;2.42;;;0.35;;
48363;SDS011;34170;54.364;18.582;2024-03-29T10:58:11;2.15;;;0.45;;
48363;SDS011;34170;54.364;18.582;2024-03-29T11:00:45;3.90;;;0.43;;
48363;SDS011;34170;54.364;18.582;2024-03-29T11:03:23;3.13;;;0.38;;
48363;SDS011;34170;54.364;18.582;2024-03-29T11:06:00;3.05;;;0.65;;
48363;SDS011;34170;54.364;18.582;2024-03-29T11:08:34;3.47;;;0.40;;
48363;SDS011;34170;54.364;18.582;2024-03-29T11:11:08;1.83;;;0.30;;
48363;SDS011;34170;54.364;18.582;2024-03-29T11:13:47;2.10;;;0.35;;
48363;SDS011;34170;54.364;18.582;2024-03-29T11:16:18;2.55;;;0.45;;
48363;SDS011;34170;54.364;18.582;2024-03-29T11:18:47;2.47;;;0.20;;
48363;SDS011;34170;54.364;18.582;2024-03-29T11:21:15;1.90;;;0.40;;
48363;SDS011;34170;54.364;18.582;2024-03-29T11:26:16;1.33;;;0.40;;
48363;SDS011;34170;54.364;18.582;2024-03-29T11:28:47;2.65;;;0.47;;
48363;SDS011;34170;54.364;18.582;2024-03-29T11:38:51;2.30;;;0.40;;
48363;SDS011;34170;54.364;18.582;2024-03-29T11:41:22;1.33;;;0.30;;
48363;SDS011;34170;54.364;18.582;2024-03-29T11:43:50;2.38;;;0.30;;
48363;SDS011;34170;54.364;18.582;2024-03-29T11:46:36;3.35;;;0.40;;
48363;SDS011;34170;54.364;18.582;2024-03-29T11:49:03;1.60;;;0.32;;
48363;SDS011;34170;54.364;18.582;2024-03-29T11:51:30;3.47;;;0.80;;
48363;SDS011;34170;54.364;18.582;2024-03-29T11:53:58;4.32;;;2.33;;
48363;SDS011;34170;54.364;18.582;2024-03-29T11:56:26;3.38;;;0.90;;
48363;SDS011;34170;54.364;18.582;2024-03-29T11:58:54;2.78;;;0.73;;
48363;SDS011;34170;54.364;18.582;2024-03-29T12:03:54;1.23;;;0.30;;
48363;SDS011;34170;54.364;18.582;2024-03-29T12:06:21;6.75;;;0.63;;
48363;SDS011;34170;54.364;18.582;2024-03-29T12:08:48;1.83;;;0.30;;
48363;SDS011;34170;54.364;18.582;2024-03-29T12:11:16;4.78;;;0.73;;
48363;SDS011;34170;54.364;18.582;2024-03-29T12:13:44;6.60;;;0.60;;
48363;SDS011;34170;54.364;18.582;2024-03-29T12:16:10;1.92;;;0.55;;
48363;SDS011;34170;54.364;18.582;2024-03-29T12:18:38;1.70;;;0.40;;
48363;SDS011;34170;54.364;18.582;2024-03-29T12:21:05;2.88;;;0.50;;
48363;SDS011;34170;54.364;18.582;2024-03-29T12:23:32;3.42;;;0.93;;
48363;SDS011;34170;54.364;18.582;2024-03-29T12:25:59;2.35;;;0.40;;
48363;SDS011;34170;54.364;18.582;2024-03-29T12:28:26;2.45;;;0.30;;
48363;SDS011;34170;54.364;18.582;2024-03-29T12:30:54;1.65;;;0.32;;
48363;SDS011;34170;54.364;18.582;2024-03-29T12:33:21;1.88;;;0.70;;
48363;SDS011;34170;54.364;18.582;2024-03-29T12:35:52;3.20;;;0.60;;
48363;SDS011;34170;54.364;18.582;2024-03-29T12:38:21;2.92;;;0.50;;
48363;SDS011;34170;54.364;18.582;2024-03-29T12:40:49;2.25;;;0.40;;
48363;SDS011;34170;54.364;18.582;2024-03-29T12:43:20;2.22;;;0.28;;
48363;SDS011;34170;54.364;18.582;2024-03-29T12:48:19;1.85;;;0.38;;
48363;SDS011;34170;54.364;18.582;2024-03-29T12:50:49;1.60;;;0.40;;
48363;SDS011;34170;54.364;18.582;2024-03-29T12:53:16;2.15;;;0.50;;
48363;SDS011;34170;54.364;18.582;2024-03-29T12:55:43;3.15;;;0.77;;
48363;SDS011;34170;54.364;18.582;2024-03-29T12:58:12;1.55;;;0.40;;
48363;SDS011;34170;54.364;18.582;2024-03-29T13:00:44;3.95;;;0.68;;
48363;SDS011;34170;54.364;18.582;2024-03-29T13:03:30;1.42;;;0.50;;
48363;SDS011;34170;54.364;18.582;2024-03-29T13:05:56;1.83;;;0.38;;
48363;SDS011;34170;54.364;18.582;2024-03-29T13:08:23;4.13;;;0.65;;
48363;SDS011;34170;54.364;18.582;2024-03-29T13:10:50;3.45;;;0.40;;
48363;SDS011;34170;54.364;18.582;2024-03-29T13:13:16;4.45;;;0.47;;
48363;SDS011;34170;54.364;18.582;2024-03-29T13:15:43;2.22;;;0.43;;
48363;SDS011;34170;54.364;18.582;2024-03-29T13:18:14;2.90;;;0.47;;
48363;SDS011;34170;54.364;18.582;2024-03-29T13:20:43;1.95;;;0.20;;
48363;SDS011;34170;54.364;18.582;2024-03-29T13:23:10;2.67;;;0.73;;
48363;SDS011;34170;54.364;18.582;2024-03-29T13:25:37;6.35;;;0.93;;
48363;SDS011;34170;54.364;18.582;2024-03-29T13:28:05;3.33;;;0.40;;
48363;SDS011;34170;54.364;18.582;2024-03-29T13:30:33;3.75;;;0.50;;
48363;SDS011;34170;54.364;18.582;2024-03-29T13:32:59;0.77;;;0.28;;
48363;SDS011;34170;54.364;18.582;2024-03-29T13:35:26;2.30;;;0.50;;
48363;SDS011;34170;54.364;18.582;2024-03-29T13:37:52;2.78;;;0.52;;
48363;SDS011;34170;54.364;18.582;2024-03-29T13:40:22;2.85;;;0.70;;
48363;SDS011;34170;54.364;18.582;2024-03-29T13:42:50;3.80;;;0.52;;
48363;SDS011;34170;54.364;18.582;2024-03-29T13:45:36;4.18;;;0.90;;
48363;SDS011;34170;54.364;18.582;2024-03-29T13:48:02;2.65;;;0.60;;
48363;SDS011;34170;54.364;18.582;2024-03-29T13:50:29;3.75;;;0.30;;
48363;SDS011;34170;54.364;18.582;2024-03-29T13:52:56;4.35;;;0.30;;
48363;SDS011;34170;54.364;18.582;2024-03-29T13:55:23;2.83;;;0.35;;
48363;SDS011;34170;54.364;18.582;2024-03-29T13:57:52;1.67;;;0.60;;
48363;SDS011;34170;54.364;18.582;2024-03-29T14:00:21;2.25;;;0.43;;
48363;SDS011;34170;54.364;18.582;2024-03-29T14:02:47;4.57;;;0.98;;
48363;SDS011;34170;54.364;18.582;2024-03-29T14:05:14;3.35;;;0.60;;
48363;SDS011;34170;54.364;18.582;2024-03-29T14:07:41;7.75;;;1.10;;
48363;SDS011;34170;54.364;18.582;2024-03-29T14:10:08;3.03;;;0.75;;
48363;SDS011;34170;54.364;18.582;2024-03-29T14:12:35;2.38;;;0.40;;
48363;SDS011;34170;54.364;18.582;2024-03-29T14:15:02;1.25;;;0.40;;
48363;SDS011;34170;54.364;18.582;2024-03-29T14:17:28;2.13;;;0.63;;
48363;SDS011;34170;54.364;18.582;2024-03-29T14:19:55;1.65;;;0.38;;
48363;SDS011;34170;54.364;18.582;2024-03-29T14:22:22;4.22;;;0.50;;
48363;SDS011;34170;54.364;18.582;2024-03-29T14:24:49;2.03;;;0.52;;
48363;SDS011;34170;54.364;18.582;2024-03-29T14:27:16;2.97;;;0.65;;
48363;SDS011;34170;54.364;18.582;2024-03-29T14:29:43;4.75;;;0.60;;
48363;SDS011;34170;54.364;18.582;2024-03-29T14:32:11;5.10;;;0.70;;
48363;SDS011;34170;54.364;18.582;2024-03-29T14:34:37;2.83;;;0.40;;
48363;SDS011;34170;54.364;18.582;2024-03-29T14:37:10;3.30;;;0.50;;
48363;SDS011;34170;54.364;18.582;2024-03-29T14:39:39;4.38;;;0.60;;
48363;SDS011;34170;54.364;18.582;2024-03-29T14:42:08;2.97;;;0.32;;
48363;SDS011;34170;54.364;18.582;2024-03-29T14:44:53;4.43;;;0.60;;
48363;SDS011;34170;54.364;18.582;2024-03-29T14:47:20;3.30;;;0.43;;
48363;SDS011;34170;54.364;18.582;2024-03-29T14:49:46;2.40;;;0.22;;
48363;SDS011;34170;54.364;18.582;2024-03-29T14:52:14;3.45;;;0.68;;
48363;SDS011;34170;54.364;18.582;2024-03-29T14:54:41;4.45;;;0.70;;
48363;SDS011;34170;54.364;18.582;2024-03-29T14:57:07;2.20;;;0.40;;
48363;SDS011;34170;54.364;18.582;2024-03-29T14:59:34;3.72;;;0.43;;
48363;SDS011;34170;54.364;18.582;2024-03-29T15:02:02;5.45;;;0.73;;
48363;SDS011;34170;54.364;18.582;2024-03-29T15:04:29;5.88;;;0.85;;
48363;SDS011;34170;54.364;18.582;2024-03-29T15:06:56;4.18;;;0.60;;
48363;SDS011;34170;54.364;18.582;2024-03-29T15:09:23;6.53;;;0.73;;
48363;SDS011;34170;54.364;18.582;2024-03-29T15:11:49;2.90;;;0.50;;
48363;SDS011;34170;54.364;18.582;2024-03-29T15:14:16;4.20;;;0.60;;
48363;SDS011;34170;54.364;18.582;2024-03-29T15:16:42;4.60;;;0.60;;
48363;SDS011;34170;54.364;18.582;2024-03-29T15:19:10;2.33;;;0.55;;
48363;SDS011;34170;54.364;18.582;2024-03-29T15:21:36;3.42;;;0.75;;
48363;SDS011;34170;54.364;18.582;2024-03-29T15:24:05;3.83;;;1.00;;
48363;SDS011;34170;54.364;18.582;2024-03-29T15:26:32;3.40;;;0.50;;
48363;SDS011;34170;54.364;18.582;2024-03-29T15:29:01;5.30;;;1.08;;
48363;SDS011;34170;54.364;18.582;2024-03-29T15:31:37;2.10;;;0.50;;
48363;SDS011;34170;54.364;18.582;2024-03-29T15:34:05;2.60;;;0.77;;